createdAt,value
2016-04-02T00:00:50.423Z,10.59
2016-04-02T00:01:50.364Z,10.63
2016-04-02T00:02:50.304Z,10.6
2016-04-02T00:03:50.322Z,10.23
2016-04-02T00:04:50.200Z,10.33
2016-04-02T00:05:50.140Z,10.42
2016-04-02T00:06:50.080Z,10.49
2016-04-02T00:07:50.037Z,10.53
2016-04-02T00:08:49.992Z,10.46
2016-04-02T00:09:49.932Z,10.22
2016-04-02T00:10:49.872Z,10.34
2016-04-02T00:11:49.813Z,10.13
2016-04-02T00:12:49.784Z,10.3
2016-04-02T00:13:49.740Z,10.33
2016-04-02T00:14:49.681Z,10.33
2016-04-02T00:15:49.604Z,10.31
2016-04-02T00:16:49.545Z,10.3
2016-04-02T00:17:49.517Z,10.31
2016-04-02T00:18:49.472Z,10.33
2016-04-02T00:19:49.381Z,10.26
2016-04-02T00:20:49.352Z,10.25
2016-04-02T00:21:49.153Z,10.31
2016-04-02T00:22:49.248Z,10.35
2016-04-02T00:23:49.173Z,10.38
2016-04-02T00:24:49.129Z,10.22
2016-04-02T00:25:49.069Z,10.23
2016-04-02T00:26:49.025Z,10.31
2016-04-02T00:27:48.966Z,10.34
2016-04-02T00:28:48.937Z,10.31
2016-04-02T00:29:48.892Z,10.26
2016-04-02T00:30:48.801Z,10.05
2016-04-02T00:31:48.772Z,10.13
2016-04-02T00:32:48.713Z,10.25
2016-04-02T00:33:48.652Z,10.23
2016-04-02T00:34:48.577Z,10.22
2016-04-02T00:35:48.554Z,10.28
2016-04-02T00:36:48.494Z,10.37
2016-04-02T00:37:48.434Z,10.37
2016-04-02T00:38:48.374Z,10.34
2016-04-02T00:39:48.315Z,10.41
2016-04-02T00:40:48.270Z,10.42
2016-04-02T00:41:48.212Z,10.2
2016-04-02T00:42:48.182Z,10.26
2016-04-02T00:43:48.122Z,10.4
2016-04-02T00:44:48.063Z,10.17
2016-04-02T00:45:48.018Z,10.22
2016-04-02T00:46:47.959Z,10.04
2016-04-02T00:47:47.898Z,10.17
2016-04-02T00:48:47.870Z,10.15
2016-04-02T00:49:47.795Z,10.2
2016-04-02T00:50:47.735Z,10.22
2016-04-02T00:51:47.691Z,10.31
2016-04-02T00:52:47.631Z,10.17
2016-04-02T00:53:47.571Z,10.3
2016-04-02T00:54:47.511Z,10.26
2016-04-02T00:55:47.483Z,10.34
2016-04-02T00:56:47.438Z,10.19
2016-04-02T00:57:47.363Z,10.2
2016-04-02T00:58:47.318Z,10.16
2016-04-02T00:59:47.260Z,10.17
2016-04-02T01:00:47.183Z,10.2
2016-04-02T01:01:47.140Z,10.1
2016-04-02T01:02:47.111Z,10.15
2016-04-02T01:03:47.020Z,10.17
2016-04-02T01:04:47.007Z,10.13
2016-04-02T01:05:46.932Z,10.19
2016-04-02T01:06:46.888Z,10.15
2016-04-02T01:07:46.827Z,10.15
2016-04-02T01:08:46.798Z,10.2
2016-04-02T01:09:46.708Z,10.22
2016-04-02T01:10:46.680Z,10.2
2016-04-02T01:11:46.635Z,10.23
2016-04-02T01:12:46.576Z,10.33
2016-04-02T01:13:46.515Z,10.25
2016-04-02T01:14:46.487Z,10.28
2016-04-02T01:15:46.395Z,10.33
2016-04-02T01:16:46.352Z,10.23
2016-04-02T01:17:46.308Z,10.3
2016-04-02T01:18:46.263Z,10.35
2016-04-02T01:19:46.188Z,10.33
2016-04-02T01:20:46.128Z,10.37
2016-04-02T01:21:46.084Z,10.44
2016-04-02T01:22:46.040Z,10.37
2016-04-02T01:23:46.012Z,10.42
2016-04-02T01:24:45.764Z,10.37
2016-04-02T01:25:45.891Z,10.34
2016-04-02T01:26:45.847Z,10.16
2016-04-02T01:27:45.788Z,10.13
2016-04-02T01:28:45.713Z,10.22
2016-04-02T01:29:45.669Z,10.28
2016-04-02T01:30:45.593Z,10.26
2016-04-02T01:31:45.564Z,10.26
2016-04-02T01:32:45.489Z,10.28
2016-04-02T01:33:45.429Z,10.22
2016-04-02T01:34:45.400Z,10.22
2016-04-02T01:35:45.325Z,10.19
2016-04-02T01:36:45.280Z,10.31
2016-04-02T01:37:45.237Z,10.38
2016-04-02T01:38:45.193Z,10.3
2016-04-02T01:39:45.132Z,10.23
2016-04-02T01:40:45.088Z,10.19
2016-04-02T01:41:45.044Z,10.12
2016-04-02T01:42:44.234Z,10.19
2016-04-02T01:43:44.909Z,10.31
2016-04-02T01:44:44.865Z,10.19
2016-04-02T01:45:44.820Z,10.23
2016-04-02T01:46:44.745Z,10.15
2016-04-02T01:47:44.717Z,9.99
2016-04-02T01:48:44.641Z,10.07
2016-04-02T01:49:44.612Z,10.13
2016-04-02T01:50:44.521Z,10.17
2016-04-02T01:51:44.492Z,10.15
2016-04-02T01:52:44.433Z,10.2
2016-04-02T01:53:44.389Z,10.22
2016-04-02T01:54:44.328Z,10.22
2016-04-02T01:55:44.269Z,10.2
2016-04-02T01:56:44.202Z,10.25
2016-04-02T01:57:44.131Z,10.2
2016-04-02T01:58:44.091Z,10.13
2016-04-02T01:59:44.019Z,10.15
2016-04-02T02:00:43.963Z,10.23
2016-04-02T02:01:43.881Z,10.23
2016-04-02T02:02:43.832Z,10.2
2016-04-02T02:03:43.800Z,10.13
2016-04-02T02:04:43.720Z,10.13
2016-04-02T02:05:43.656Z,10.12
2016-04-02T02:06:43.625Z,10.07
2016-04-02T02:07:43.548Z,9.98
2016-04-02T02:08:43.496Z,10.09
2016-04-02T02:09:43.450Z,10.15
2016-04-02T02:10:43.373Z,10.17
2016-04-02T02:11:43.344Z,10.17
2016-04-02T02:12:43.285Z,10.17
2016-04-02T02:13:43.255Z,10.17
2016-04-02T02:14:43.171Z,10.16
2016-04-02T02:15:43.112Z,10.16
2016-04-02T02:16:43.052Z,10.07
2016-04-02T02:17:43.008Z,10.09
2016-04-02T02:18:42.947Z,10.1
2016-04-02T02:19:42.887Z,10.16
2016-04-02T02:20:42.842Z,10.13
2016-04-02T02:21:42.798Z,10.15
2016-04-02T02:22:42.737Z,10.09
2016-04-02T02:23:42.709Z,10.16
2016-04-02T02:24:42.634Z,10.13
2016-04-02T02:25:42.589Z,10.05
2016-04-02T02:26:42.530Z,10.04
2016-04-02T02:27:42.471Z,10.07
2016-04-02T02:28:42.411Z,10.02
2016-04-02T02:29:42.367Z,10.04
2016-04-02T02:30:42.322Z,10.12
2016-04-02T02:31:42.294Z,10.07
2016-04-02T02:32:42.203Z,10.01
2016-04-02T02:33:42.159Z,10.04
2016-04-02T02:34:42.115Z,10.12
2016-04-02T02:35:42.055Z,10.05
2016-04-02T02:36:41.995Z,10.09
2016-04-02T02:37:41.951Z,10.05
2016-04-02T02:38:41.906Z,10.15
2016-04-02T02:39:41.831Z,10.16
2016-04-02T02:40:41.771Z,10.09
2016-04-02T02:41:41.712Z,10.17
2016-04-02T02:42:41.667Z,10.15
2016-04-02T02:43:41.608Z,10.13
2016-04-02T02:44:41.564Z,9.98
2016-04-02T02:45:41.503Z,10.04
2016-04-02T02:46:41.444Z,10.1
2016-04-02T02:47:41.400Z,10.16
2016-04-02T02:48:41.355Z,10.15
2016-04-02T02:49:41.311Z,10.16
2016-04-02T02:50:41.251Z,10.01
2016-04-02T02:51:41.191Z,10.09
2016-04-02T02:52:41.132Z,10.05
2016-04-02T02:53:41.103Z,10.13
2016-04-02T02:54:41.043Z,10.1
2016-04-02T02:55:40.984Z,10.15
2016-04-02T02:56:40.924Z,10.19
2016-04-02T02:57:40.865Z,10.09
2016-04-02T02:58:40.804Z,10.05
2016-04-02T02:59:40.760Z,10.01
2016-04-02T03:00:40.700Z,9.87
2016-04-02T03:01:40.656Z,10.07
2016-04-02T03:02:40.596Z,10.05
2016-04-02T03:03:40.551Z,10.01
2016-04-02T03:04:40.509Z,9.87
2016-04-02T03:05:40.464Z,9.87
2016-04-02T03:06:40.404Z,9.98
2016-04-02T03:07:40.345Z,10.01
2016-04-02T03:08:40.285Z,10.01
2016-04-02T03:09:40.209Z,9.95
2016-04-02T03:10:40.196Z,9.89
2016-04-02T03:11:40.136Z,9.82
2016-04-02T03:12:40.045Z,9.91
2016-04-02T03:13:40.017Z,9.79
2016-04-02T03:14:39.956Z,9.76
2016-04-02T03:15:39.897Z,9.89
2016-04-02T03:16:39.852Z,9.79
2016-04-02T03:17:39.793Z,9.91
2016-04-02T03:18:39.749Z,9.87
2016-04-02T03:19:39.689Z,9.87
2016-04-02T03:20:39.614Z,9.82
2016-04-02T03:21:39.585Z,9.84
2016-04-02T03:22:39.541Z,9.91
2016-04-02T03:23:39.465Z,9.91
2016-04-02T03:24:39.405Z,9.91
2016-04-02T03:25:39.346Z,9.94
2016-04-02T03:26:39.301Z,9.72
2016-04-02T03:27:39.241Z,9.72
2016-04-02T03:28:39.182Z,9.82
2016-04-02T03:29:39.138Z,9.84
2016-04-02T03:30:39.110Z,9.84
2016-04-02T03:31:39.018Z,9.77
2016-04-02T03:32:38.974Z,9.82
2016-04-02T03:33:38.929Z,9.79
2016-04-02T03:34:38.854Z,9.66
2016-04-02T03:35:38.810Z,9.68
2016-04-02T03:36:38.766Z,9.8
2016-04-02T03:37:38.706Z,9.84
2016-04-02T03:38:38.646Z,9.86
2016-04-02T03:39:38.602Z,9.91
2016-04-02T03:40:38.573Z,9.79
2016-04-02T03:41:38.498Z,9.91
2016-04-02T03:42:38.439Z,9.89
2016-04-02T03:43:38.379Z,9.92
2016-04-02T03:44:38.319Z,9.89
2016-04-02T03:45:38.290Z,9.97
2016-04-02T03:46:38.215Z,9.99
2016-04-02T03:47:38.030Z,9.89
2016-04-02T03:48:38.127Z,9.99
2016-04-02T03:49:38.050Z,9.94
2016-04-02T03:50:38.022Z,9.92
2016-04-02T03:51:37.977Z,9.99
2016-04-02T03:52:37.902Z,9.86
2016-04-02T03:53:37.858Z,9.68
2016-04-02T03:54:37.813Z,9.76
2016-04-02T03:55:37.738Z,9.92
2016-04-02T03:56:37.679Z,9.83
2016-04-02T03:57:37.651Z,9.79
2016-04-02T03:58:37.560Z,9.82
2016-04-02T03:59:37.531Z,9.54
2016-04-02T04:00:37.487Z,9.73
2016-04-02T04:01:37.411Z,9.65
2016-04-02T04:02:37.367Z,9.73
2016-04-02T04:03:37.307Z,9.69
2016-04-02T04:04:37.263Z,9.82
2016-04-02T04:05:37.219Z,9.8
2016-04-02T04:06:37.144Z,9.89
2016-04-02T04:07:37.115Z,9.95
2016-04-02T04:08:37.040Z,10.01
2016-04-02T04:09:36.996Z,9.94
2016-04-02T04:10:36.951Z,10.02
2016-04-02T04:11:36.923Z,10.01
2016-04-02T04:12:36.831Z,10.04
2016-04-02T04:13:36.772Z,9.99
2016-04-02T04:14:36.728Z,9.94
2016-04-02T04:15:36.683Z,9.94
2016-04-02T04:16:36.623Z,10.05
2016-04-02T04:17:36.563Z,9.99
2016-04-02T04:18:36.519Z,10.01
2016-04-02T04:19:36.460Z,9.98
2016-04-02T04:20:36.400Z,9.97
2016-04-02T04:21:36.356Z,10.07
2016-04-02T04:22:36.280Z,10.01
2016-04-02T04:23:36.236Z,9.95
2016-04-02T04:24:36.192Z,9.89
2016-04-02T04:25:36.132Z,9.86
2016-04-02T04:26:36.072Z,9.87
2016-04-02T04:27:36.027Z,9.83
2016-04-02T04:28:35.984Z,9.87
2016-04-02T04:29:35.939Z,9.83
2016-04-02T04:30:35.848Z,9.77
2016-04-02T04:31:35.820Z,9.77
2016-04-02T04:32:35.760Z,9.82
2016-04-02T04:33:35.700Z,9.94
2016-04-02T04:34:35.641Z,9.94
2016-04-02T04:35:35.581Z,9.87
2016-04-02T04:36:35.552Z,10.01
2016-04-02T04:37:35.493Z,9.92
2016-04-02T04:38:35.448Z,10.01
2016-04-02T04:39:35.373Z,9.91
2016-04-02T04:40:35.328Z,10.02
2016-04-02T04:41:35.269Z,10.02
2016-04-02T04:42:35.225Z,10.01
2016-04-02T04:43:35.165Z,10.01
2016-04-02T04:44:35.106Z,10.01
2016-04-02T04:45:35.076Z,9.92
2016-04-02T04:46:35.001Z,10.01
2016-04-02T04:47:34.957Z,9.98
2016-04-02T04:48:34.897Z,10.07
2016-04-02T04:49:34.837Z,10.13
2016-04-02T04:50:34.793Z,10.04
2016-04-02T04:51:34.749Z,10.05
2016-04-02T04:52:34.705Z,10.09
2016-04-02T04:53:34.629Z,9.99
2016-04-02T04:54:34.585Z,9.95
2016-04-02T04:55:34.525Z,10.05
2016-04-02T04:56:34.465Z,10.04
2016-04-02T04:57:34.438Z,9.89
2016-04-02T04:58:34.393Z,10.04
2016-04-02T04:59:34.318Z,9.95
2016-04-02T05:00:34.274Z,9.92
2016-04-02T05:01:34.213Z,9.87
2016-04-02T05:02:34.138Z,9.95
2016-04-02T05:03:34.078Z,9.97
2016-04-02T05:04:34.049Z,9.94
2016-04-02T05:05:34.005Z,10.01
2016-04-02T05:06:33.945Z,9.98
2016-04-02T05:07:33.885Z,10.05
2016-04-02T05:08:33.841Z,10.09
2016-04-02T05:09:33.781Z,10.07
2016-04-02T05:10:33.722Z,10.13
2016-04-02T05:11:33.677Z,10.16
2016-04-02T05:12:33.618Z,10.13
2016-04-02T05:13:33.558Z,10.13
2016-04-02T05:14:33.514Z,10.12
2016-04-02T05:15:33.439Z,10.07
2016-04-02T05:16:33.409Z,10.12
2016-04-02T05:17:33.350Z,10.12
2016-04-02T05:18:33.305Z,10.16
2016-04-02T05:19:33.246Z,10.15
2016-04-02T05:20:33.186Z,10.1
2016-04-02T05:21:33.142Z,10.04
2016-04-02T05:22:33.083Z,10.1
2016-04-02T05:23:33.039Z,10.17
2016-04-02T05:24:32.978Z,10.15
2016-04-02T05:25:32.950Z,10.15
2016-04-02T05:26:33.061Z,10.22
2016-04-02T05:27:32.814Z,10.23
2016-04-02T05:28:32.755Z,10.1
2016-04-02T05:29:32.726Z,9.94
2016-04-02T05:30:32.666Z,10.01
2016-04-02T05:31:32.637Z,9.98
2016-04-02T05:32:32.562Z,10.12
2016-04-02T05:33:32.534Z,10.1
2016-04-02T05:34:32.426Z,10.01
2016-04-02T05:35:32.382Z,9.92
2016-04-02T05:36:32.338Z,9.92
2016-04-02T05:37:32.279Z,10.05
2016-04-02T05:38:32.251Z,10.01
2016-04-02T05:39:32.175Z,10.09
2016-04-02T05:40:32.115Z,10.09
2016-04-02T05:41:32.055Z,10.09
2016-04-02T05:42:32.026Z,10.09
2016-04-02T05:43:31.951Z,10.09
2016-04-02T05:44:31.891Z,10.13
2016-04-02T05:45:31.847Z,9.94
2016-04-02T05:46:31.802Z,10.07
2016-04-02T05:47:31.758Z,10.1
2016-04-02T05:48:31.683Z,10.12
2016-04-02T05:49:31.655Z,10.07
2016-04-02T05:50:31.580Z,10.12
2016-04-02T05:51:31.520Z,10.19
2016-04-02T05:52:31.475Z,10.15
2016-04-02T05:53:31.416Z,10.13
2016-04-02T05:54:31.372Z,10.13
2016-04-02T05:55:31.311Z,10.02
2016-04-02T05:56:31.267Z,10.09
2016-04-02T05:57:31.223Z,10.05
2016-04-02T05:58:31.147Z,10.09
2016-04-02T05:59:31.088Z,10.09
2016-04-02T06:00:31.044Z,10.17
2016-04-02T06:01:30.985Z,10.12
2016-04-02T06:02:30.924Z,10.15
2016-04-02T06:03:30.896Z,10.19
2016-04-02T06:04:30.836Z,10.17
2016-04-02T06:05:30.776Z,10.13
2016-04-02T06:06:30.732Z,10.02
2016-04-02T06:07:30.671Z,10.07
2016-04-02T06:08:30.643Z,10.19
2016-04-02T06:09:30.568Z,10.12
2016-04-02T06:10:30.508Z,10.16
2016-04-02T06:11:30.448Z,10.19
2016-04-02T06:12:30.403Z,10.19
2016-04-02T06:13:30.359Z,10.13
2016-04-02T06:14:30.300Z,10.12
2016-04-02T06:15:30.225Z,10.12
2016-04-02T06:16:30.181Z,10.01
2016-04-02T06:17:30.168Z,10.01
2016-04-02T06:18:30.076Z,10.09
2016-04-02T06:19:30.033Z,10.1
2016-04-02T06:20:29.988Z,10.17
2016-04-02T06:21:29.913Z,10.16
2016-04-02T06:22:29.853Z,10.15
2016-04-02T06:23:29.824Z,10.22
2016-04-02T06:24:29.749Z,10.12
2016-04-02T06:25:29.719Z,10.05
2016-04-02T06:26:29.644Z,10.07
2016-04-02T06:27:29.600Z,10.13
2016-04-02T06:28:29.540Z,10.16
2016-04-02T06:29:29.512Z,10.2
2016-04-02T06:30:29.437Z,10.2
2016-04-02T06:31:29.407Z,10.12
2016-04-02T06:32:29.318Z,10.17
2016-04-02T06:33:29.288Z,10.09
2016-04-02T06:34:29.229Z,10.17
2016-04-02T06:35:29.184Z,10.2
2016-04-02T06:36:29.109Z,10.13
2016-04-02T06:37:29.081Z,10.09
2016-04-02T06:38:29.005Z,10.05
2016-04-02T06:39:28.962Z,10.1
2016-04-02T06:40:28.933Z,10.19
2016-04-02T06:41:28.842Z,10.19
2016-04-02T06:42:28.782Z,10.15
2016-04-02T06:43:28.738Z,10.2
2016-04-02T06:44:28.693Z,10.12
2016-04-02T06:45:28.634Z,10.1
2016-04-02T06:46:28.573Z,9.95
2016-04-02T06:47:28.545Z,10.02
2016-04-02T06:48:28.470Z,10.09
2016-04-02T06:49:28.409Z,10.1
2016-04-02T06:50:28.366Z,10.1
2016-04-02T06:51:28.305Z,9.99
2016-04-02T06:52:28.261Z,9.92
2016-04-02T06:53:28.186Z,9.98
2016-04-02T06:54:28.173Z,9.98
2016-04-02T06:55:28.114Z,10.05
2016-04-02T06:56:28.053Z,10.04
2016-04-02T06:57:27.978Z,9.98
2016-04-02T06:58:27.949Z,10.02
2016-04-02T06:59:27.890Z,9.95
2016-04-02T07:00:27.830Z,10.04
2016-04-02T07:01:27.785Z,10.05
2016-04-02T07:02:27.726Z,10.12
2016-04-02T07:03:27.650Z,10.07
2016-04-02T07:04:27.590Z,10.05
2016-04-02T07:05:27.531Z,10.01
2016-04-02T07:06:27.502Z,9.91
2016-04-02T07:07:27.129Z,9.94
2016-04-02T07:08:27.540Z,9.92
2016-04-02T07:09:27.354Z,9.92
2016-04-02T07:10:27.263Z,9.94
2016-04-02T07:11:27.219Z,10.02
2016-04-02T07:12:27.159Z,9.99
2016-04-02T07:13:27.115Z,9.98
2016-04-02T07:14:27.056Z,10.07
2016-04-02T07:15:27.011Z,9.99
2016-04-02T07:16:26.936Z,10.04
2016-04-02T07:17:26.892Z,10.05
2016-04-02T07:18:26.847Z,9.89
2016-04-02T07:19:26.787Z,9.98
2016-04-02T07:20:26.743Z,9.97
2016-04-02T07:21:26.667Z,10.01
2016-04-02T07:22:26.639Z,9.98
2016-04-02T07:23:26.580Z,9.98
2016-04-02T07:24:26.503Z,10.15
2016-04-02T07:25:26.460Z,9.89
2016-04-02T07:26:26.415Z,9.92
2016-04-02T07:27:26.355Z,9.91
2016-04-02T07:28:26.311Z,9.97
2016-04-02T07:29:26.252Z,9.87
2016-04-02T07:30:26.208Z,9.87
2016-04-02T07:31:26.147Z,9.98
2016-04-02T07:32:26.104Z,10.04
2016-04-02T07:33:26.043Z,10.02
2016-04-02T07:34:25.968Z,10.04
2016-04-02T07:35:25.908Z,10.01
2016-04-02T07:36:25.896Z,10.09
2016-04-02T07:37:25.835Z,10.13
2016-04-02T07:38:25.760Z,10.04
2016-04-02T07:39:25.715Z,9.95
2016-04-02T07:40:25.656Z,9.91
2016-04-02T07:41:25.596Z,9.91
2016-04-02T07:42:25.537Z,9.92
2016-04-02T07:43:25.493Z,9.99
2016-04-02T07:44:25.432Z,10.04
2016-04-02T07:45:25.389Z,10.13
2016-04-02T07:46:25.328Z,10.05
2016-04-02T07:47:25.284Z,10.12
2016-04-02T07:48:25.209Z,10.1
2016-04-02T07:49:25.180Z,10.22
2016-04-02T07:50:25.106Z,10.2
2016-04-02T07:51:25.061Z,10.17
2016-04-02T07:52:25.001Z,10.19
2016-04-02T07:53:24.957Z,10.22
2016-04-02T07:54:24.913Z,10.23
2016-04-02T07:55:24.837Z,10.28
2016-04-02T07:56:24.793Z,10.3
2016-04-02T07:57:24.749Z,10.26
2016-04-02T07:58:24.688Z,10.33
2016-04-02T07:59:24.644Z,10.37
2016-04-02T08:00:24.585Z,10.28
2016-04-02T08:01:24.525Z,10.26
2016-04-02T08:02:24.481Z,10.13
2016-04-02T08:03:24.422Z,10.2
2016-04-02T08:04:24.361Z,10.26
2016-04-02T08:05:24.349Z,10.22
2016-04-02T08:06:24.257Z,10.25
2016-04-02T08:07:24.213Z,10.34
2016-04-02T08:08:24.137Z,10.31
2016-04-02T08:09:24.109Z,10.23
2016-04-02T08:10:24.049Z,10.35
2016-04-02T08:11:24.004Z,10.25
2016-04-02T08:12:23.961Z,10.19
2016-04-02T08:13:23.901Z,10.33
2016-04-02T08:14:23.826Z,10.38
2016-04-02T08:15:23.829Z,10.4
2016-04-02T08:16:23.737Z,10.4
2016-04-02T08:17:23.662Z,10.54
2016-04-02T08:18:23.617Z,10.46
2016-04-02T08:19:23.558Z,10.44
2016-04-02T08:20:23.498Z,10.44
2016-04-02T08:21:23.470Z,10.4
2016-04-02T08:22:23.395Z,10.54
2016-04-02T08:23:23.334Z,10.42
2016-04-02T08:24:23.290Z,10.48
2016-04-02T08:25:23.230Z,10.54
2016-04-02T08:26:23.389Z,10.35
2016-04-02T08:27:23.126Z,10.42
2016-04-02T08:28:23.097Z,10.51
2016-04-02T08:29:23.007Z,10.54
2016-04-02T08:30:22.994Z,10.44
2016-04-02T08:31:22.919Z,10.56
2016-04-02T08:32:22.874Z,10.59
2016-04-02T08:33:22.814Z,10.63
2016-04-02T08:34:22.754Z,10.71
2016-04-02T08:35:22.726Z,10.63
2016-04-02T08:36:22.665Z,10.63
2016-04-02T08:37:22.590Z,10.71
2016-04-02T08:38:22.546Z,10.59
2016-04-02T08:39:22.487Z,10.63
2016-04-02T08:40:22.442Z,10.69
2016-04-02T08:41:22.383Z,10.74
2016-04-02T08:42:22.338Z,10.72
2016-04-02T08:43:22.279Z,10.79
2016-04-02T08:44:22.234Z,10.64
2016-04-02T08:45:22.190Z,10.78
2016-04-02T08:46:22.146Z,10.75
2016-04-02T08:47:22.056Z,10.61
2016-04-02T08:48:22.011Z,10.68
2016-04-02T08:49:21.967Z,10.59
2016-04-02T08:50:21.906Z,10.69
2016-04-02T08:51:21.847Z,10.79
2016-04-02T08:52:21.803Z,10.75
2016-04-02T08:53:21.742Z,10.79
2016-04-02T08:54:21.714Z,10.72
2016-04-02T08:55:21.639Z,10.64
2016-04-02T08:56:21.595Z,10.76
2016-04-02T08:57:21.520Z,10.69
2016-04-02T08:58:21.475Z,10.81
2016-04-02T08:59:21.431Z,10.76
2016-04-02T09:00:21.371Z,10.84
2016-04-02T09:01:21.343Z,10.78
2016-04-02T09:02:21.249Z,10.86
2016-04-02T09:03:21.220Z,10.75
2016-04-02T09:04:21.177Z,10.87
2016-04-02T09:05:21.116Z,10.92
2016-04-02T09:06:20.307Z,10.92
2016-04-02T09:07:20.996Z,10.96
2016-04-02T09:08:20.952Z,10.78
2016-04-02T09:09:20.907Z,10.92
2016-04-02T09:10:20.848Z,10.93
2016-04-02T09:11:20.804Z,10.89
2016-04-02T09:12:20.729Z,10.97
2016-04-02T09:13:20.685Z,10.97
2016-04-02T09:14:20.640Z,10.89
2016-04-02T09:15:20.596Z,10.94
2016-04-02T09:16:20.521Z,10.92
2016-04-02T09:17:20.462Z,11.04
2016-04-02T09:18:20.418Z,11.12
2016-04-02T09:19:20.467Z,11.15
2016-04-02T09:20:20.313Z,11.14
2016-04-02T09:21:20.269Z,11.17
2016-04-02T09:22:20.209Z,11.18
2016-04-02T09:23:20.149Z,11.15
2016-04-02T09:24:20.089Z,11.19
2016-04-02T09:25:20.045Z,11.32
2016-04-02T09:26:20.001Z,11.32
2016-04-02T09:27:19.957Z,11.17
2016-04-02T09:28:19.897Z,11.32
2016-04-02T09:29:19.869Z,11.33
2016-04-02T09:30:19.793Z,11.44
2016-04-02T09:31:19.733Z,11.4
2016-04-02T09:32:19.688Z,11.43
2016-04-02T09:33:19.629Z,11.4
2016-04-02T09:34:19.679Z,11.15
2016-04-02T09:35:19.525Z,10.99
2016-04-02T09:36:19.466Z,11.07
2016-04-02T09:37:19.437Z,11.19
2016-04-02T09:38:19.361Z,11.22
2016-04-02T09:39:19.317Z,11.17
2016-04-02T09:40:19.258Z,11.15
2016-04-02T09:41:19.198Z,11.07
2016-04-02T09:42:19.138Z,11.17
2016-04-02T09:43:19.109Z,11.15
2016-04-02T09:44:19.034Z,11.23
2016-04-02T09:45:18.974Z,11.26
2016-04-02T09:46:18.945Z,11.43
2016-04-02T09:47:18.870Z,11.33
2016-04-02T09:48:18.841Z,11.37
2016-04-02T09:49:18.720Z,11.35
2016-04-02T09:50:18.737Z,11.44
2016-04-02T09:51:18.678Z,11.47
2016-04-02T09:52:18.617Z,11.45
2016-04-02T09:53:18.573Z,11.45
2016-04-02T09:54:18.498Z,11.4
2016-04-02T09:55:18.453Z,11.5
2016-04-02T09:56:18.409Z,11.55
2016-04-02T09:57:18.381Z,11.7
2016-04-02T09:58:18.322Z,11.69
2016-04-02T09:59:18.247Z,11.7
2016-04-02T10:00:18.217Z,11.72
2016-04-02T10:01:18.173Z,11.78
2016-04-02T10:02:18.082Z,11.84
2016-04-02T10:03:18.038Z,11.9
2016-04-02T10:04:18.056Z,11.95
2016-04-02T10:05:17.934Z,11.95
2016-04-02T10:06:17.891Z,12.04
2016-04-02T10:07:17.861Z,12.17
2016-04-02T10:08:17.817Z,12.12
2016-04-02T10:09:17.726Z,12.18
2016-04-02T10:10:17.697Z,12.25
2016-04-02T10:11:17.637Z,12.2
2016-04-02T10:12:17.609Z,12.13
2016-04-02T10:13:17.534Z,12.22
2016-04-02T10:14:17.505Z,12.28
2016-04-02T10:15:17.430Z,12.4
2016-04-02T10:16:17.401Z,12.45
2016-04-02T10:17:17.341Z,12.4
2016-04-02T10:18:17.297Z,12.47
2016-04-02T10:19:17.331Z,12.6
2016-04-02T10:20:17.192Z,12.65
2016-04-02T10:21:17.148Z,12.73
2016-04-02T10:22:17.073Z,12.72
2016-04-02T10:23:17.029Z,12.87
2016-04-02T10:24:16.970Z,13
2016-04-02T10:25:16.925Z,13.04
2016-04-02T10:26:16.865Z,12.97
2016-04-02T10:27:16.821Z,13.05
2016-04-02T10:28:16.792Z,13.08
2016-04-02T10:29:16.717Z,13.05
2016-04-02T10:30:16.673Z,13.11
2016-04-02T10:31:16.629Z,13.18
2016-04-02T10:32:16.553Z,13.23
2016-04-02T10:33:16.525Z,13.23
2016-04-02T10:34:17.043Z,13.19
2016-04-02T10:35:16.436Z,13.23
2016-04-02T10:36:16.360Z,13.28
2016-04-02T10:37:16.316Z,13.25
2016-04-02T10:38:16.257Z,13.38
2016-04-02T10:39:16.041Z,13.3
2016-04-02T10:40:16.169Z,13.12
2016-04-02T10:41:16.109Z,13.23
2016-04-02T10:42:15.315Z,13.42
2016-04-02T10:43:16.021Z,13.5
2016-04-02T10:44:15.976Z,13.57
2016-04-02T10:45:15.916Z,13.67
2016-04-02T10:46:15.856Z,13.7
2016-04-02T10:47:15.812Z,13.68
2016-04-02T10:48:15.753Z,13.74
2016-04-02T10:49:15.896Z,13.86
2016-04-02T10:50:15.649Z,13.96
2016-04-02T10:51:15.604Z,13.87
2016-04-02T10:52:15.576Z,13.93
2016-04-02T10:53:15.516Z,14.05
2016-04-02T10:54:15.457Z,14.07
2016-04-02T10:55:15.412Z,14.08
2016-04-02T10:56:15.353Z,14.12
2016-04-02T10:57:15.324Z,14.15
2016-04-02T10:58:15.264Z,14.28
2016-04-02T10:59:15.236Z,14.33
2016-04-02T11:00:15.160Z,14.45
2016-04-02T11:01:15.116Z,14.41
2016-04-02T11:02:15.055Z,14.51
2016-04-02T11:03:15.017Z,14.55
2016-04-02T11:04:15.039Z,14.58
2016-04-02T11:05:14.891Z,14.59
2016-04-02T11:06:14.836Z,14.66
2016-04-02T11:07:14.764Z,14.6
2016-04-02T11:08:14.700Z,14.77
2016-04-02T11:09:14.683Z,14.77
2016-04-02T11:10:14.603Z,14.68
2016-04-02T11:11:14.538Z,14.68
2016-04-02T11:12:14.506Z,14.53
2016-04-02T11:13:14.445Z,14.4
2016-04-02T11:14:14.399Z,14.65
2016-04-02T11:15:14.337Z,14.63
2016-04-02T11:16:14.291Z,14.79
2016-04-02T11:17:14.246Z,14.91
2016-04-02T11:18:14.186Z,14.91
2016-04-02T11:19:13.877Z,15.04
2016-04-02T11:20:14.113Z,14.68
2016-04-02T11:21:14.052Z,14.89
2016-04-02T11:22:13.992Z,14.99
2016-04-02T11:23:13.932Z,15.11
2016-04-02T11:24:13.904Z,15.18
2016-04-02T11:25:13.845Z,15.21
2016-04-02T11:26:13.785Z,15.22
2016-04-02T11:27:13.772Z,15.24
2016-04-02T11:28:13.728Z,15.36
2016-04-02T11:29:13.667Z,15.29
2016-04-02T11:30:13.592Z,15.37
2016-04-02T11:31:13.595Z,15.4
2016-04-02T11:32:13.519Z,15.46
2016-04-02T11:33:13.459Z,15.43
2016-04-02T11:34:13.416Z,15.52
2016-04-02T11:35:13.356Z,15.55
2016-04-02T11:36:13.312Z,15.49
2016-04-02T11:37:13.267Z,15.51
2016-04-02T11:38:13.208Z,15.54
2016-04-02T11:39:13.163Z,15.47
2016-04-02T11:40:13.119Z,15.46
2016-04-02T11:41:13.074Z,15.43
2016-04-02T11:42:13.030Z,15.49
2016-04-02T11:43:12.955Z,15.57
2016-04-02T11:44:12.926Z,15.47
2016-04-02T11:45:12.852Z,15.44
2016-04-02T11:46:12.838Z,15.43
2016-04-02T11:47:12.779Z,15.52
2016-04-02T11:48:12.749Z,15.39
2016-04-02T11:49:12.721Z,15.46
2016-04-02T11:50:12.630Z,15.44
2016-04-02T11:51:12.571Z,15.36
2016-04-02T11:52:12.527Z,15.39
2016-04-02T11:53:12.482Z,15.44
2016-04-02T11:54:12.438Z,15.42
2016-04-02T11:55:12.378Z,15.42
2016-04-02T11:56:12.334Z,15.42
2016-04-02T11:57:12.320Z,15.37
2016-04-02T11:58:12.230Z,15.37
2016-04-02T11:59:12.201Z,15.4
2016-04-02T12:00:12.141Z,15.29
2016-04-02T12:01:12.129Z,15.33
2016-04-02T12:02:12.069Z,15.29
2016-04-02T12:03:11.994Z,15.29
2016-04-02T12:04:12.011Z,15.28
2016-04-02T12:05:11.905Z,15.22
2016-04-02T12:06:11.845Z,15.24
2016-04-02T12:07:11.816Z,15.24
2016-04-02T12:08:11.757Z,15.14
2016-04-02T12:09:11.696Z,15.14
2016-04-02T12:10:11.668Z,15.1
2016-04-02T12:11:11.608Z,15.14
2016-04-02T12:12:11.564Z,15.21
2016-04-02T12:13:11.489Z,15.24
2016-04-02T12:14:11.741Z,15.21
2016-04-02T12:15:11.760Z,15.17
2016-04-02T12:16:11.341Z,15.19
2016-04-02T12:17:11.312Z,15.21
2016-04-02T12:18:11.269Z,15.17
2016-04-02T12:19:11.240Z,15.06
2016-04-02T12:20:11.180Z,15.07
2016-04-02T12:21:11.135Z,15.03
2016-04-02T12:22:11.076Z,15.03
2016-04-02T12:23:11.016Z,15.09
2016-04-02T12:24:10.831Z,15.07
2016-04-02T12:25:10.943Z,15
2016-04-02T12:26:10.883Z,15.07
2016-04-02T12:27:10.809Z,15.14
2016-04-02T12:28:10.795Z,15.15
2016-04-02T12:29:10.720Z,15.17
2016-04-02T12:30:10.676Z,15.22
2016-04-02T12:31:10.615Z,15.14
2016-04-02T12:32:10.603Z,15.18
2016-04-02T12:33:10.558Z,15.19
2016-04-02T12:34:10.373Z,15.18
2016-04-02T12:35:10.407Z,15.18
2016-04-02T12:36:10.378Z,15.15
2016-04-02T12:37:10.319Z,15.25
2016-04-02T12:38:10.275Z,15.24
2016-04-02T12:39:10.231Z,15.31
2016-04-02T12:40:10.186Z,15.25
2016-04-02T12:41:10.127Z,15.33
2016-04-02T12:42:10.082Z,15.31
2016-04-02T12:43:10.023Z,15.46
2016-04-02T12:44:09.979Z,15.55
2016-04-02T12:45:09.935Z,15.47
2016-04-02T12:46:09.891Z,15.52
2016-04-02T12:47:09.862Z,15.59
2016-04-02T12:48:10.880Z,15.61
2016-04-02T12:49:09.789Z,15.65
2016-04-02T12:50:09.666Z,15.64
2016-04-02T12:51:09.638Z,15.64
2016-04-02T12:52:09.593Z,15.62
2016-04-02T12:53:09.535Z,15.64
2016-04-02T12:54:09.490Z,15.61
2016-04-02T12:55:09.446Z,15.62
2016-04-02T12:56:09.387Z,15.75
2016-04-02T12:57:09.326Z,15.64
2016-04-02T12:58:09.282Z,15.83
2016-04-02T12:59:09.237Z,15.95